Terminal Aerodrome Forecast
Issued by NWS Sterling, VA

Current Version | Previous Version | Graphics & Text | Print | Product List | Glossary On
Versions: 1 2 3 4 5 6 7 8 9 10 11 12 13 14 15 16 17 18 19 20 21 22 23 24 25 26 27 28
807
FTUS41 KLWX 031555 AAC
TAFIAD
TAF AMD
KIAD 031555Z 0316/0418 18005KT 1SM -RA BR OVC002 WS020/18045KT
      TEMPO 0316/0320 1/2SM FG
     FM032000 19013G24KT 2SM SHRA BR BKN012 OVC025
     FM032200 24010G19KT 4SM -RA BR OVC030
     FM040000 VRB03KT P6SM OVC050
     FM040600 26005KT P6SM BKN080
     FM041500 32012KT P6SM BKN090=

USA.gov is the U.S. government's official web portal to all federal, state and local government web resources and services.